sensor_id;sensor_type;location;lat;lon;timestamp;P1;durP1;ratioP1;P2;durP2;ratioP2
9506;SDS011;4791;47.528;9.372;2023-05-19T00:11:59;3.53;;;1.80;;
9506;SDS011;4791;47.528;9.372;2023-05-19T00:26:59;2.85;;;1.95;;
9506;SDS011;4791;47.528;9.372;2023-05-19T00:42:00;2.60;;;1.53;;
9506;SDS011;4791;47.528;9.372;2023-05-19T00:57:01;3.78;;;2.10;;
9506;SDS011;4791;47.528;9.372;2023-05-19T01:12:03;3.37;;;2.00;;
9506;SDS011;4791;47.528;9.372;2023-05-19T01:42:22;3.07;;;2.03;;
9506;SDS011;4791;47.528;9.372;2023-05-19T01:58:03;4.43;;;2.77;;
9506;SDS011;4791;47.528;9.372;2023-05-19T02:12:57;4.67;;;2.73;;
9506;SDS011;4791;47.528;9.372;2023-05-19T02:28:00;7.37;;;3.23;;
9506;SDS011;4791;47.528;9.372;2023-05-19T02:43:00;6.18;;;3.30;;
9506;SDS011;4791;47.528;9.372;2023-05-19T02:58:01;5.43;;;3.30;;
9506;SDS011;4791;47.528;9.372;2023-05-19T03:13:01;5.68;;;3.58;;
9506;SDS011;4791;47.528;9.372;2023-05-19T03:28:01;5.03;;;3.20;;
9506;SDS011;4791;47.528;9.372;2023-05-19T03:43:02;4.28;;;3.85;;
9506;SDS011;4791;47.528;9.372;2023-05-19T03:58:02;5.47;;;3.50;;
9506;SDS011;4791;47.528;9.372;2023-05-19T04:13:03;6.00;;;3.90;;
9506;SDS011;4791;47.528;9.372;2023-05-19T04:28:03;6.20;;;3.60;;
9506;SDS011;4791;47.528;9.372;2023-05-19T04:43:03;5.45;;;4.00;;
9506;SDS011;4791;47.528;9.372;2023-05-19T04:58:06;7.37;;;4.90;;
9506;SDS011;4791;47.528;9.372;2023-05-19T05:13:07;6.40;;;4.40;;
9506;SDS011;4791;47.528;9.372;2023-05-19T05:28:07;7.05;;;4.70;;
9506;SDS011;4791;47.528;9.372;2023-05-19T05:43:08;9.52;;;5.30;;
9506;SDS011;4791;47.528;9.372;2023-05-19T05:58:08;7.43;;;5.00;;
9506;SDS011;4791;47.528;9.372;2023-05-19T06:13:10;6.60;;;4.60;;
9506;SDS011;4791;47.528;9.372;2023-05-19T06:28:10;7.63;;;4.88;;
9506;SDS011;4791;47.528;9.372;2023-05-19T06:43:12;9.60;;;5.57;;
9506;SDS011;4791;47.528;9.372;2023-05-19T06:58:13;7.27;;;5.60;;
9506;SDS011;4791;47.528;9.372;2023-05-19T07:13:16;6.80;;;4.80;;
9506;SDS011;4791;47.528;9.372;2023-05-19T07:28:16;7.63;;;4.87;;
9506;SDS011;4791;47.528;9.372;2023-05-19T07:43:16;6.32;;;4.50;;
9506;SDS011;4791;47.528;9.372;2023-05-19T07:58:17;5.73;;;4.73;;
9506;SDS011;4791;47.528;9.372;2023-05-19T08:13:18;9.57;;;5.55;;
9506;SDS011;4791;47.528;9.372;2023-05-19T08:28:19;8.47;;;4.90;;
9506;SDS011;4791;47.528;9.372;2023-05-19T08:43:19;7.93;;;4.93;;
9506;SDS011;4791;47.528;9.372;2023-05-19T08:58:22;6.83;;;4.83;;
9506;SDS011;4791;47.528;9.372;2023-05-19T09:13:22;6.97;;;4.95;;
9506;SDS011;4791;47.528;9.372;2023-05-19T09:28:26;10.13;;;5.75;;
9506;SDS011;4791;47.528;9.372;2023-05-19T09:43:32;6.80;;;4.50;;
9506;SDS011;4791;47.528;9.372;2023-05-19T09:58:33;8.37;;;5.13;;
9506;SDS011;4791;47.528;9.372;2023-05-19T10:13:35;5.17;;;4.27;;
9506;SDS011;4791;47.528;9.372;2023-05-19T10:28:38;8.97;;;4.97;;
9506;SDS011;4791;47.528;9.372;2023-05-19T10:43:45;7.10;;;4.43;;
9506;SDS011;4791;47.528;9.372;2023-05-19T10:58:51;6.53;;;4.50;;
9506;SDS011;4791;47.528;9.372;2023-05-19T11:13:55;7.95;;;4.65;;
9506;SDS011;4791;47.528;9.372;2023-05-19T11:28:55;6.37;;;4.87;;
9506;SDS011;4791;47.528;9.372;2023-05-19T11:43:56;7.25;;;3.72;;
9506;SDS011;4791;47.528;9.372;2023-05-19T11:58:56;9.63;;;4.47;;
9506;SDS011;4791;47.528;9.372;2023-05-19T12:13:57;7.13;;;4.57;;
9506;SDS011;4791;47.528;9.372;2023-05-19T12:28:58;7.63;;;4.03;;
9506;SDS011;4791;47.528;9.372;2023-05-19T12:43:59;7.33;;;3.97;;
9506;SDS011;4791;47.528;9.372;2023-05-19T12:58:59;8.57;;;4.20;;
9506;SDS011;4791;47.528;9.372;2023-05-19T13:14:00;5.93;;;3.70;;
9506;SDS011;4791;47.528;9.372;2023-05-19T13:29:01;8.73;;;3.92;;
9506;SDS011;4791;47.528;9.372;2023-05-19T13:44:02;8.90;;;4.63;;
9506;SDS011;4791;47.528;9.372;2023-05-19T13:59:05;6.90;;;5.17;;
9506;SDS011;4791;47.528;9.372;2023-05-19T14:14:06;11.05;;;5.80;;
9506;SDS011;4791;47.528;9.372;2023-05-19T14:29:06;9.93;;;6.30;;
9506;SDS011;4791;47.528;9.372;2023-05-19T14:44:07;9.17;;;6.70;;
9506;SDS011;4791;47.528;9.372;2023-05-19T14:59:07;9.38;;;6.03;;
9506;SDS011;4791;47.528;9.372;2023-05-19T15:14:08;8.90;;;6.70;;
9506;SDS011;4791;47.528;9.372;2023-05-19T15:29:08;8.57;;;7.15;;
9506;SDS011;4791;47.528;9.372;2023-05-19T15:44:09;9.10;;;7.23;;
9506;SDS011;4791;47.528;9.372;2023-05-19T15:59:09;10.45;;;7.43;;
9506;SDS011;4791;47.528;9.372;2023-05-19T16:14:09;9.27;;;7.00;;
9506;SDS011;4791;47.528;9.372;2023-05-19T16:29:10;8.68;;;7.78;;
9506;SDS011;4791;47.528;9.372;2023-05-19T16:44:10;10.83;;;8.00;;
9506;SDS011;4791;47.528;9.372;2023-05-19T16:59:13;9.93;;;8.13;;
9506;SDS011;4791;47.528;9.372;2023-05-19T17:14:13;10.67;;;7.20;;
9506;SDS011;4791;47.528;9.372;2023-05-19T17:29:14;9.02;;;7.35;;
9506;SDS011;4791;47.528;9.372;2023-05-19T17:44:14;9.77;;;7.20;;
9506;SDS011;4791;47.528;9.372;2023-05-19T17:59:17;7.97;;;7.18;;
9506;SDS011;4791;47.528;9.372;2023-05-19T18:14:18;8.43;;;7.50;;
9506;SDS011;4791;47.528;9.372;2023-05-19T18:29:18;9.27;;;7.47;;
9506;SDS011;4791;47.528;9.372;2023-05-19T18:44:18;10.25;;;7.35;;
9506;SDS011;4791;47.528;9.372;2023-05-19T18:59:23;10.47;;;8.23;;
9506;SDS011;4791;47.528;9.372;2023-05-19T19:14:24;10.37;;;8.63;;
9506;SDS011;4791;47.528;9.372;2023-05-19T19:29:27;8.60;;;7.50;;
9506;SDS011;4791;47.528;9.372;2023-05-19T19:44:28;8.00;;;7.20;;
9506;SDS011;4791;47.528;9.372;2023-05-19T19:59:30;8.30;;;7.33;;
9506;SDS011;4791;47.528;9.372;2023-05-19T20:14:33;8.60;;;7.67;;
9506;SDS011;4791;47.528;9.372;2023-05-19T20:29:33;15.57;;;8.43;;
9506;SDS011;4791;47.528;9.372;2023-05-19T20:44:34;9.23;;;8.27;;
9506;SDS011;4791;47.528;9.372;2023-05-19T20:59:37;9.17;;;7.60;;
9506;SDS011;4791;47.528;9.372;2023-05-19T21:14:37;9.15;;;7.57;;
9506;SDS011;4791;47.528;9.372;2023-05-19T21:29:38;9.03;;;8.00;;
9506;SDS011;4791;47.528;9.372;2023-05-19T21:44:40;10.73;;;8.43;;
9506;SDS011;4791;47.528;9.372;2023-05-19T21:59:43;10.17;;;9.17;;
9506;SDS011;4791;47.528;9.372;2023-05-19T22:14:46;10.87;;;9.47;;
9506;SDS011;4791;47.528;9.372;2023-05-19T22:29:47;13.10;;;10.20;;
9506;SDS011;4791;47.528;9.372;2023-05-19T22:44:50;13.23;;;9.93;;
9506;SDS011;4791;47.528;9.372;2023-05-19T22:59:50;12.17;;;10.97;;
9506;SDS011;4791;47.528;9.372;2023-05-19T23:14:53;13.87;;;11.63;;
9506;SDS011;4791;47.528;9.372;2023-05-19T23:29:53;14.27;;;12.70;;
9506;SDS011;4791;47.528;9.372;2023-05-19T23:44:56;12.38;;;11.07;;
9506;SDS011;4791;47.528;9.372;2023-05-19T23:59:56;13.77;;;11.77;;
